Kyme — XUPY9 — position and weather

sailwx.info

Track history (hours):
 
Tides and Currents Weather Stations Pressure Air Temp Water Temp Dewpoint Dewpoint Depression Visibility Wind Speed Wind Dir Waves Ship Positions

Kyme

Last reported at 2014-Aug-20 10:24 UTC. Time now 2014-Aug-22 07:53 UTC.
Position N 40°45' E 029°30'.

Length 114 m; draft 3.6 m.

Type: Cargo ship. MMSI: 514283000.

Date/timePositionNaut miles runAvg speedWind from/ knotsBaromVisibWave heightAir tempDewpointWater temp
2014-Aug-20 10:24N 40°45' E 029°30'6 7.0
2014-Aug-20 09:33N 40°44' E 029°22'7 6.9
2014-Aug-20 08:34N 40°47' E 029°15'5 4.9
2014-Aug-20 07:31N 40°52' E 029°13'0 0.0
2014-Aug-20 06:32N 40°52' E 029°13'4 4.0
2014-Aug-20 05:33N 40°49' E 029°10'6 5.5
2014-Aug-20 04:32N 40°49' E 029°03'7 6.7
2014-Aug-20 03:31N 40°55' E 028°57'  
2014-Aug-16 19:33N 45°53' E 030°25'7 6.2
2014-Aug-16 18:27N 45°59' E 030°30'6 0.2
2014-Aug-15 17:15N 46°05' E 030°28'7 0.6
2014-Aug-15 05:33N 46°11' E 030°22'0 0.0
2014-Aug-15 04:33N 46°11' E 030°22'0 0.0
2014-Aug-15 03:27N 46°11' E 030°22'0 0.0
2014-Aug-15 02:33N 46°11' E 030°22'0 0.0
2014-Aug-15 01:33N 46°11' E 030°22'0 0.0
2014-Aug-15 00:33N 46°11' E 030°22'0 0.0
2014-Aug-14 23:33N 46°11' E 030°22'0 0.0
2014-Aug-14 22:33N 46°11' E 030°22'0 0.0
2014-Aug-14 21:33N 46°11' E 030°22'0 0.0
2014-Aug-14 20:15N 46°11' E 030°22'0 0.0
2014-Aug-14 19:33N 46°11' E 030°22'0 0.0
2014-Aug-14 18:32N 46°11' E 030°22'0 0.0
2014-Aug-13 17:32N 46°11' E 030°22'0 0.0
2014-Aug-13 14:20N 46°11' E 030°22'0 0.0
2014-Aug-13 13:32N 46°11' E 030°22'0 0.0
2014-Aug-13 11:08N 46°11' E 030°22'0 0.0
2014-Aug-13 10:32N 46°11' E 030°22'0 0.0
2014-Aug-13 09:31N 46°11' E 030°22'0 0.0
2014-Aug-13 08:25N 46°11' E 030°22'0 0.0
2014-Aug-13 07:31N 46°11' E 030°22'0 0.0
2014-Aug-13 05:25N 46°11' E 030°22'0 0.0
2014-Aug-13 04:25N 46°11' E 030°22'0 0.0
2014-Aug-13 03:31N 46°11' E 030°22'0 0.0
2014-Aug-13 02:28N 46°11' E 030°22'0 0.0
2014-Aug-13 01:28N 46°11' E 030°22'0 0.0
2014-Aug-13 00:31N 46°11' E 030°22'0 0.0
2014-Aug-12 23:31N 46°11' E 030°22'0 0.0
2014-Aug-12 22:31N 46°11' E 030°22'0 0.0
2014-Aug-12 21:31N 46°11' E 030°22'0 0.0
2014-Aug-12 20:28N 46°11' E 030°22'0 0.0
2014-Aug-12 19:31N 46°11' E 030°22'0 0.0
2014-Aug-12 18:31N 46°11' E 030°22'0 0.0
2014-Aug-12 17:31N 46°11' E 030°22'0 0.0
2014-Aug-11 20:18N 46°11' E 030°22'  
Track history (hours):
 
Tides and Currents Weather Stations Pressure Air Temp Water Temp Dewpoint Dewpoint Depression Visibility Wind Speed Wind Dir Waves Ship Positions

Kyme

Last reported at 2014-Aug-20 10:24 UTC. Time now 2014-Aug-22 07:53 UTC.
Position N 40°45' E 029°30'.

Length 114 m; draft 3.6 m.

Type: Cargo ship. MMSI: 514283000.

Date/timePositionNaut miles runAvg speedWind from/ knotsBaromVisibWave heightAir tempDewpointWater temp
2014-Aug-20 10:24N 40°45' E 029°30'6 7.0
2014-Aug-20 09:33N 40°44' E 029°22'7 6.9
2014-Aug-20 08:34N 40°47' E 029°15'5 4.9
2014-Aug-20 07:31N 40°52' E 029°13'0 0.0
2014-Aug-20 06:32N 40°52' E 029°13'4 4.0
2014-Aug-20 05:33N 40°49' E 029°10'6 5.5
2014-Aug-20 04:32N 40°49' E 029°03'7 6.7
2014-Aug-20 03:31N 40°55' E 028°57'  
2014-Aug-16 19:33N 45°53' E 030°25'7 6.2
2014-Aug-16 18:27N 45°59' E 030°30'6 0.2
2014-Aug-15 17:15N 46°05' E 030°28'7 0.6
2014-Aug-15 05:33N 46°11' E 030°22'0 0.0
2014-Aug-15 04:33N 46°11' E 030°22'0 0.0
2014-Aug-15 03:27N 46°11' E 030°22'0 0.0
2014-Aug-15 02:33N 46°11' E 030°22'0 0.0
2014-Aug-15 01:33N 46°11' E 030°22'0 0.0
2014-Aug-15 00:33N 46°11' E 030°22'0 0.0
2014-Aug-14 23:33N 46°11' E 030°22'0 0.0
2014-Aug-14 22:33N 46°11' E 030°22'0 0.0
2014-Aug-14 21:33N 46°11' E 030°22'0 0.0
2014-Aug-14 20:15N 46°11' E 030°22'0 0.0
2014-Aug-14 19:33N 46°11' E 030°22'0 0.0
2014-Aug-14 18:32N 46°11' E 030°22'0 0.0
2014-Aug-13 17:32N 46°11' E 030°22'0 0.0
2014-Aug-13 14:20N 46°11' E 030°22'0 0.0
2014-Aug-13 13:32N 46°11' E 030°22'0 0.0
2014-Aug-13 11:08N 46°11' E 030°22'0 0.0
2014-Aug-13 10:32N 46°11' E 030°22'0 0.0
2014-Aug-13 09:31N 46°11' E 030°22'0 0.0
2014-Aug-13 08:25N 46°11' E 030°22'0 0.0
2014-Aug-13 07:31N 46°11' E 030°22'0 0.0
2014-Aug-13 05:25N 46°11' E 030°22'0 0.0
2014-Aug-13 04:25N 46°11' E 030°22'0 0.0
2014-Aug-13 03:31N 46°11' E 030°22'0 0.0
2014-Aug-13 02:28N 46°11' E 030°22'0 0.0
2014-Aug-13 01:28N 46°11' E 030°22'0 0.0
2014-Aug-13 00:31N 46°11' E 030°22'0 0.0
2014-Aug-12 23:31N 46°11' E 030°22'0 0.0
2014-Aug-12 22:31N 46°11' E 030°22'0 0.0
2014-Aug-12 21:31N 46°11' E 030°22'0 0.0
2014-Aug-12 20:28N 46°11' E 030°22'0 0.0
2014-Aug-12 19:31N 46°11' E 030°22'0 0.0
2014-Aug-12 18:31N 46°11' E 030°22'0 0.0
2014-Aug-12 17:31N 46°11' E 030°22'0 0.0
2014-Aug-11 20:18N 46°11' E 030°22'  

Dump ship's entire track history